Time;durP1;ratioP1;P1;durP2;ratioP2;P2;SDS_P1;SDS_P2;PMS_P1;PMS_P2;Temp;Humidity;BMP_temperature;BMP_pressure;BME280_temperature;BME280_humidity;BME280_pressure;Samples;Min_cycle;Max_cycle;Signal;HPM_P1;HPM_P2
2023/05/27 00:01:17;;;;;;;7.57;3.70;;;;;;;9.81;87.93;99267.66;2617222;28;20048;-86
2023/05/27 00:02:33;;;;;;;8.82;3.15;;;;;;;9.72;89.70;99262.53;2615557;28;20048;-86
2023/05/27 00:03:49;;;;;;;9.25;4.05;;;;;;;9.78;88.54;99258.97;2616461;28;20113;-86
2023/05/27 00:05:05;;;;;;;7.72;3.30;;;;;;;9.58;93.59;99263.56;2615048;28;20094;-86
2023/05/27 00:06:21;;;;;;;8.32;3.70;;;;;;;9.58;91.62;99258.31;2617653;28;20521;-86
2023/05/27 00:07:37;;;;;;;9.30;3.35;;;;;;;9.65;92.18;99255.63;2614703;28;20057;-86
2023/05/27 00:08:52;;;;;;;10.80;3.35;;;;;;;9.60;96.12;99256.56;2617316;28;20450;-86
2023/05/27 00:10:08;;;;;;;9.85;4.00;;;;;;;9.71;95.74;99252.97;2616794;28;20504;-86
2023/05/27 00:11:25;;;;;;;11.80;3.63;;;;;;;9.37;96.44;99251.56;2615767;28;20041;-87
2023/05/27 00:12:41;;;;;;;9.35;3.75;;;;;;;9.46;94.25;99259.31;2617611;28;20140;-86
2023/05/27 00:13:57;;;;;;;10.32;3.60;;;;;;;9.55;92.72;99255.72;2616613;28;20182;-86
2023/05/27 00:15:12;;;;;;;9.52;3.45;;;;;;;9.61;93.39;99255.66;2616234;28;20071;-86
2023/05/27 00:16:28;;;;;;;8.57;3.58;;;;;;;9.59;94.00;99256.56;2614978;28;20044;-86
2023/05/27 00:17:43;;;;;;;9.70;3.03;;;;;;;9.43;97.28;99261.94;2616137;28;20051;-85
2023/05/27 00:18:59;;;;;;;9.07;3.72;;;;;;;9.25;100.00;99256.91;2604874;28;20041;-85
2023/05/27 00:20:15;;;;;;;9.35;2.85;;;;;;;9.11;100.00;99260.53;2610390;28;20052;-87
2023/05/27 00:21:31;;;;;;;8.45;3.22;;;;;;;9.06;100.00;99256.22;2617321;28;20048;-85
2023/05/27 00:22:48;;;;;;;6.88;3.03;;;;;;;9.23;100.00;99259.53;2615541;28;20593;-85
2023/05/27 00:24:03;;;;;;;8.18;3.20;;;;;;;9.24;97.98;99260.41;2617818;28;20511;-85
2023/05/27 00:25:20;;;;;;;6.90;3.50;;;;;;;9.40;97.08;99259.38;2615690;28;20064;-85
2023/05/27 00:26:35;;;;;;;8.27;2.92;;;;;;;9.37;98.24;99261.16;2615687;28;20044;-85
2023/05/27 00:27:51;;;;;;;7.25;2.58;;;;;;;9.32;98.07;99261.19;2616481;28;20064;-84
2023/05/27 00:29:09;;;;;;;5.28;3.20;;;;;;;9.33;98.15;99257.69;2615889;28;20094;-87
2023/05/27 00:30:25;;;;;;;7.55;3.22;;;;;;;9.26;100.00;99253.41;2617794;28;20067;-86
2023/05/27 00:31:41;;;;;;;5.88;2.90;;;;;;;9.33;97.56;99260.31;2615158;28;20048;-85
2023/05/27 00:32:56;;;;;;;8.85;3.05;;;;;;;9.25;97.01;99257.78;2618312;28;20041;-86
2023/05/27 00:34:12;;;;;;;7.45;3.55;;;;;;;9.25;97.25;99257.78;2614824;28;20055;-86
2023/05/27 00:35:28;;;;;;;10.40;3.35;;;;;;;8.99;99.20;99252.78;2606114;28;20045;-85
2023/05/27 00:36:44;;;;;;;6.38;2.70;;;;;;;9.06;98.35;99257.06;2609907;28;20056;-87
2023/05/27 00:38:00;;;;;;;6.35;2.95;;;;;;;8.99;98.55;99253.63;2618302;28;20413;-86
2023/05/27 00:39:16;;;;;;;11.90;3.40;;;;;;;9.10;98.75;99253.56;2616106;28;20055;-85
2023/05/27 00:40:34;;;;;;;7.05;2.97;;;;;;;9.07;97.97;99258.78;2615138;28;20045;-86
2023/05/27 00:41:51;;;;;;;9.38;3.50;;;;;;;9.17;96.11;99257.84;2616694;28;20052;-86
2023/05/27 00:43:07;;;;;;;8.98;2.92;;;;;;;9.23;94.72;99259.53;2616321;28;20099;-86
2023/05/27 00:44:23;;;;;;;10.23;2.95;;;;;;;9.31;94.96;99256.84;2616150;28;20049;-86
2023/05/27 00:45:38;;;;;;;7.50;3.25;;;;;;;9.21;94.55;99261.31;2616490;28;20124;-86
2023/05/27 00:46:54;;;;;;;10.35;3.30;;;;;;;9.19;94.56;99263.91;2616870;28;20492;-85
2023/05/27 00:48:10;;;;;;;9.05;3.15;;;;;;;9.25;94.63;99254.31;2617651;28;20048;-86
2023/05/27 00:49:26;;;;;;;9.18;2.67;;;;;;;9.20;94.11;99262.19;2618235;28;20044;-85
2023/05/27 00:50:42;;;;;;;5.30;2.95;;;;;;;9.28;93.29;99257.72;2617531;28;20045;-86
2023/05/27 00:51:57;;;;;;;5.85;3.17;;;;;;;9.29;93.33;99261.22;2614992;28;20135;-85
2023/05/27 00:53:13;;;;;;;6.97;3.20;;;;;;;9.07;94.57;99261.41;2604425;28;20064;-85
2023/05/27 00:54:31;;;;;;;6.65;2.75;;;;;;;9.12;94.60;99263.97;2608387;28;20106;-85
2023/05/27 00:55:47;;;;;;;6.43;3.10;;;;;;;9.00;96.31;99259.75;2617320;28;20488;-86
2023/05/27 00:57:03;;;;;;;6.40;2.72;;;;;;;8.79;97.06;99263.38;2614546;28;20069;-85
2023/05/27 00:58:21;;;;;;;7.70;2.90;;;;;;;8.83;96.20;99258.13;2617600;28;20056;-86
2023/05/27 00:59:36;;;;;;;7.70;2.78;;;;;;;8.76;97.76;99249.47;2614668;28;20136;-86
2023/05/27 01:00:52;;;;;;;8.20;3.30;;;;;;;8.82;97.25;99255.53;2606345;28;20049;-86
2023/05/27 01:02:08;;;;;;;8.05;3.30;;;;;;;8.86;97.06;99258.09;2610174;28;20111;-86
2023/05/27 01:03:23;;;;;;;7.25;3.00;;;;;;;8.77;95.75;99250.34;2616207;28;20044;-86
2023/05/27 01:04:39;;;;;;;9.15;3.20;;;;;;;8.73;97.10;99244.28;2618000;28;20049;-85
2023/05/27 01:06:04;;;;;;;8.20;3.00;;;;;;;8.78;95.71;99251.22;2603896;28;20103;-86
2023/05/27 01:07:50;;;;;;;7.60;2.58;;;;;;;8.69;95.96;99253.00;2609584;28;20062;-86
2023/05/27 01:09:29;;;;;;;7.22;3.10;;;;;;;8.59;100.00;99254.81;2617635;28;20679;-85
2023/05/27 01:10:49;;;;;;;9.13;3.05;;;;;;;8.69;100.00;99254.75;2613967;28;20518;-86
2023/05/27 01:12:14;;;;;;;11.20;3.30;;;;;;;8.68;100.00;99255.66;2616438;28;20492;-85
2023/05/27 01:13:47;;;;;;;8.95;3.08;;;;;;;8.51;100.00;99246.16;2608502;28;20079;-86
2023/05/27 01:15:06;;;;;;;6.63;3.03;;;;;;;8.45;100.00;99251.41;2613612;28;20055;-86
2023/05/27 01:16:24;;;;;;;7.03;2.95;;;;;;;8.54;100.00;99247.88;2615675;28;20106;-86
2023/05/27 01:17:42;;;;;;;6.53;2.88;;;;;;;8.58;100.00;99240.03;2613606;28;20045;-86
2023/05/27 01:19:02;;;;;;;8.50;2.85;;;;;;;8.35;100.00;99242.75;2614655;28;20346;-86
2023/05/27 01:20:18;;;;;;;8.98;2.78;;;;;;;7.90;100.00;99251.69;2616324;28;20210;-86
2023/05/27 01:21:36;;;;;;;6.07;2.90;;;;;;;7.84;100.00;99251.69;2612855;28;20052;-85
2023/05/27 01:22:53;;;;;;;9.35;3.03;;;;;;;7.73;100.00;99259.56;2614829;28;20045;-85
2023/05/27 01:24:08;;;;;;;6.30;2.90;;;;;;;7.97;100.00;99244.72;2614263;28;20132;-86
2023/05/27 01:25:24;;;;;;;7.53;2.90;;;;;;;8.03;100.00;99249.88;2614768;28;20049;-87
2023/05/27 01:26:42;;;;;;;12.52;3.17;;;;;;;8.22;100.00;99251.53;2613775;28;20040;-86
2023/05/27 01:27:57;;;;;;;7.82;3.10;;;;;;;8.30;100.00;99245.41;2614118;28;20514;-85
2023/05/27 01:29:13;;;;;;;8.77;2.83;;;;;;;8.23;100.00;99248.91;2614439;28;20057;-86
2023/05/27 01:30:29;;;;;;;10.60;3.22;;;;;;;8.39;100.00;99244.47;2614082;28;20045;-86
2023/05/27 01:32:07;;;;;;;9.10;3.10;;;;;;;8.55;100.00;99247.91;2615622;28;20056;-86
2023/05/27 01:33:30;;;;;;;11.25;3.08;;;;;;;8.28;100.00;99251.50;2613562;28;20515;-85
2023/05/27 01:34:51;;;;;;;9.15;3.35;;;;;;;7.85;100.00;99242.16;2613457;28;20045;-86
2023/05/27 01:36:17;;;;;;;6.65;2.92;;;;;;;8.09;100.00;99249.00;2613441;28;20582;-86
2023/05/27 01:37:37;;;;;;;8.52;3.20;;;;;;;8.17;100.00;99248.94;2614109;28;20559;-85
2023/05/27 01:38:54;;;;;;;7.32;3.30;;;;;;;8.26;100.00;99245.41;2612818;28;20055;-85
2023/05/27 01:40:12;;;;;;;8.93;3.22;;;;;;;8.26;100.00;99250.63;2614157;28;20052;-86
2023/05/27 01:41:29;;;;;;;7.32;2.97;;;;;;;8.29;100.00;99253.22;2613721;28;20497;-86
2023/05/27 01:42:45;;;;;;;8.50;3.35;;;;;;;8.30;100.00;99248.00;2616276;28;20136;-86
2023/05/27 01:44:01;;;;;;;7.40;3.55;;;;;;;8.31;100.00;99252.34;2615726;28;20045;-85
2023/05/27 01:45:17;;;;;;;9.82;3.15;;;;;;;8.39;100.00;99254.06;2614779;28;20090;-86
2023/05/27 01:46:32;;;;;;;11.15;3.85;;;;;;;8.33;100.00;99254.97;2615002;28;20045;-86
2023/05/27 01:47:48;;;;;;;8.38;3.30;;;;;;;8.42;100.00;99252.28;2613867;28;20591;-85
2023/05/27 01:49:04;;;;;;;7.85;3.28;;;;;;;8.37;100.00;99255.78;2615829;28;20053;-86
2023/05/27 01:50:19;;;;;;;6.30;3.10;;;;;;;8.38;100.00;99257.50;2613404;28;20048;-85
2023/05/27 01:51:35;;;;;;;10.90;2.97;;;;;;;8.38;100.00;99254.91;2614322;28;20103;-86
2023/05/27 01:52:51;;;;;;;14.07;3.53;;;;;;;8.36;100.00;99254.06;2612602;28;20060;-85
2023/05/27 01:54:06;;;;;;;11.93;3.45;;;;;;;8.34;100.00;99247.09;2613824;28;20053;-86
2023/05/27 01:55:22;;;;;;;6.78;2.80;;;;;;;8.25;100.00;99247.19;2614957;28;20048;-86
2023/05/27 01:56:38;;;;;;;6.50;2.70;;;;;;;8.22;100.00;99247.16;2616633;28;20055;-86
2023/05/27 01:57:53;;;;;;;8.38;3.72;;;;;;;8.05;100.00;99252.50;2614686;28;20387;-85
2023/05/27 01:59:09;;;;;;;7.82;2.95;;;;;;;7.89;100.00;99256.91;2615185;28;20053;-85
2023/05/27 02:00:25;;;;;;;7.72;3.35;;;;;;;7.65;100.00;99248.28;2603744;28;20092;-85
2023/05/27 02:01:41;;;;;;;6.68;3.00;;;;;;;7.63;100.00;99239.59;2608186;28;20055;-85
2023/05/27 02:02:57;;;;;;;6.30;3.10;;;;;;;7.89;100.00;99246.47;2614514;28;20048;-85
2023/05/27 02:04:13;;;;;;;8.25;2.90;;;;;;;7.78;100.00;99242.16;2614085;28;20036;-86
2023/05/27 02:05:28;;;;;;;7.70;2.97;;;;;;;7.94;100.00;99246.44;2612726;28;20048;-86
2023/05/27 02:06:44;;;;;;;7.78;3.22;;;;;;;7.98;100.00;99242.94;2614753;28;20051;-85
2023/05/27 02:07:59;;;;;;;6.93;3.30;;;;;;;8.03;100.00;99235.97;2615051;28;20049;-86
2023/05/27 02:09:15;;;;;;;9.60;3.20;;;;;;;7.98;100.00;99240.34;2615548;28;20515;-85
2023/05/27 02:10:30;;;;;;;8.20;2.95;;;;;;;8.02;100.00;99248.16;2613431;28;20380;-85
2023/05/27 02:11:46;;;;;;;9.00;3.15;;;;;;;8.12;100.00;99246.34;2613112;28;20060;-86
2023/05/27 02:13:02;;;;;;;9.45;2.65;;;;;;;8.20;100.00;99252.41;2613421;28;20064;-85
2023/05/27 02:14:18;;;;;;;10.50;2.92;;;;;;;8.02;100.00;99239.44;2613778;28;20056;-85
2023/05/27 02:15:34;;;;;;;8.85;3.38;;;;;;;7.86;100.00;99241.28;2615180;28;20120;-85
2023/05/27 02:16:49;;;;;;;7.72;3.00;;;;;;;8.11;100.00;99243.78;2613226;28;20050;-85
2023/05/27 02:18:05;;;;;;;6.25;3.00;;;;;;;7.99;100.00;99248.16;2612713;28;20052;-86
2023/05/27 02:19:22;;;;;;;9.23;3.08;;;;;;;8.10;100.00;99242.91;2601115;28;20095;-85
2023/05/27 02:20:37;;;;;;;9.15;3.10;;;;;;;8.25;100.00;99247.19;2607497;28;20045;-86
2023/05/27 02:21:52;;;;;;;9.50;3.15;;;;;;;8.22;100.00;99244.56;2612442;28;20045;-85
2023/05/27 02:23:08;;;;;;;8.35;3.22;;;;;;;8.23;100.00;99251.50;2615283;28;20051;-86
2023/05/27 02:24:24;;;;;;;9.75;3.08;;;;;;;8.19;100.00;99247.19;2612995;28;20072;-85
2023/05/27 02:25:39;;;;;;;10.18;3.17;;;;;;;8.16;100.00;99247.22;2615758;28;20383;-86
2023/05/27 02:26:55;;;;;;;11.85;3.38;;;;;;;8.21;100.00;99248.03;2614755;28;20061;-85
2023/05/27 02:28:10;;;;;;;8.30;3.03;;;;;;;8.10;100.00;99249.84;2613522;28;20057;-86
2023/05/27 02:29:26;;;;;;;11.15;3.13;;;;;;;8.06;100.00;99252.47;2612142;28;20099;-85
2023/05/27 02:30:42;;;;;;;7.90;3.20;;;;;;;7.97;100.00;99260.34;2613551;28;20500;-86
2023/05/27 02:31:57;;;;;;;8.15;3.42;;;;;;;7.83;100.00;99256.94;2614254;28;20057;-85
2023/05/27 02:33:12;;;;;;;10.05;3.35;;;;;;;7.97;100.00;99251.66;2613936;28;20036;-86
2023/05/27 02:34:28;;;;;;;11.00;3.50;;;;;;;8.06;100.00;99255.06;2615388;28;20412;-86
2023/05/27 02:35:44;;;;;;;8.43;2.95;;;;;;;7.98;100.00;99254.25;2615057;28;20071;-85
2023/05/27 02:37:00;;;;;;;7.60;2.78;;;;;;;8.00;100.00;99251.63;2612456;28;20128;-86
2023/05/27 02:38:16;;;;;;;9.50;3.33;;;;;;;7.55;100.00;99257.03;2614176;28;20059;-86
2023/05/27 02:39:31;;;;;;;8.13;3.10;;;;;;;7.84;100.00;99248.25;2612943;28;20056;-85
2023/05/27 02:40:47;;;;;;;7.25;3.00;;;;;;;7.68;100.00;99253.47;2615140;28;20672;-85
2023/05/27 02:42:03;;;;;;;10.45;3.50;;;;;;;7.82;100.00;99255.16;2612244;28;20055;-86
2023/05/27 02:43:18;;;;;;;10.25;3.17;;;;;;;7.80;100.00;99249.09;2612443;28;20049;-86
2023/05/27 02:44:33;;;;;;;5.68;2.88;;;;;;;7.81;100.00;99250.81;2612524;28;20056;-85
2023/05/27 02:45:49;;;;;;;7.25;3.00;;;;;;;7.81;100.00;99254.31;2613862;28;20122;-86
2023/05/27 02:47:05;;;;;;;7.88;3.40;;;;;;;7.80;100.00;99246.50;2615349;28;20115;-86
2023/05/27 02:48:20;;;;;;;6.30;2.80;;;;;;;7.75;100.00;99257.81;2602189;28;20124;-86
2023/05/27 02:49:36;;;;;;;10.82;3.20;;;;;;;7.82;100.00;99252.56;2606875;28;20565;-85
2023/05/27 02:50:51;;;;;;;6.00;2.90;;;;;;;7.74;100.00;99257.81;2612605;28;20049;-86
2023/05/27 02:52:07;;;;;;;6.72;3.25;;;;;;;7.70;100.00;99250.88;2612908;28;20045;-86
2023/05/27 02:53:23;;;;;;;10.52;3.20;;;;;;;7.55;100.00;99257.88;2614286;28;20079;-85
2023/05/27 02:54:38;;;;;;;6.63;2.92;;;;;;;7.25;100.00;99256.19;2601907;28;20045;-86
2023/05/27 02:55:54;;;;;;;8.90;2.65;;;;;;;7.30;100.00;99257.06;2606897;28;20566;-85
2023/05/27 02:57:09;;;;;;;6.97;3.45;;;;;;;7.26;100.00;99255.31;2613583;28;20403;-85
2023/05/27 02:58:25;;;;;;;9.40;3.05;;;;;;;7.34;100.00;99262.25;2614912;28;20048;-85
2023/05/27 02:59:40;;;;;;;6.75;2.47;;;;;;;7.12;100.00;99263.16;2614377;28;20048;-86
2023/05/27 03:00:56;;;;;;;9.07;3.13;;;;;;;7.27;100.00;99259.69;2614880;28;20396;-86
2023/05/27 03:02:11;;;;;;;10.25;3.35;;;;;;;7.24;100.00;99263.13;2614321;28;20045;-86
2023/05/27 03:03:27;;;;;;;9.63;3.13;;;;;;;7.29;100.00;99257.94;2612446;28;20041;-86
2023/05/27 03:04:43;;;;;;;8.00;3.13;;;;;;;7.21;100.00;99256.19;2614333;28;20029;-86
2023/05/27 03:05:58;;;;;;;10.55;3.22;;;;;;;7.25;100.00;99258.78;2612653;28;20056;-85
2023/05/27 03:07:14;;;;;;;12.02;3.10;;;;;;;7.18;100.00;99261.41;2601405;28;20508;-86
2023/05/27 03:08:31;;;;;;;10.27;3.80;;;;;;;7.26;100.00;99265.72;2605203;28;20044;-86
2023/05/27 03:09:46;;;;;;;11.32;3.33;;;;;;;7.34;100.00;99258.78;2612333;28;20060;-85
2023/05/27 03:11:02;;;;;;;10.20;3.47;;;;;;;7.49;100.00;99266.56;2612409;28;20068;-85
2023/05/27 03:12:17;;;;;;;7.88;3.33;;;;;;;7.50;100.00;99262.22;2615075;28;20284;-86
2023/05/27 03:13:33;;;;;;;7.03;3.45;;;;;;;7.42;100.00;99258.75;2614930;28;20515;-86
2023/05/27 03:14:49;;;;;;;11.20;3.42;;;;;;;7.40;100.00;99261.34;2614016;28;20040;-86
2023/05/27 03:16:05;;;;;;;7.93;2.85;;;;;;;7.40;100.00;99265.72;2614237;28;20052;-86
2023/05/27 03:17:21;;;;;;;7.88;2.88;;;;;;;7.47;100.00;99265.72;2613057;28;20057;-86
2023/05/27 03:18:37;;;;;;;9.10;2.85;;;;;;;7.37;100.00;99266.59;2614440;28;20080;-86
2023/05/27 03:19:52;;;;;;;11.10;3.22;;;;;;;7.09;100.00;99264.00;2611689;28;20041;-85
2023/05/27 03:21:09;;;;;;;11.90;3.42;;;;;;;7.30;100.00;99259.66;2613730;28;20044;-86
2023/05/27 03:22:24;;;;;;;11.93;3.20;;;;;;;7.39;100.00;99262.22;2602334;28;20096;-86
2023/05/27 03:23:40;;;;;;;9.95;3.17;;;;;;;7.32;100.00;99263.13;2607461;28;20049;-86
2023/05/27 03:24:56;;;;;;;8.02;3.42;;;;;;;7.16;100.00;99268.34;2614004;28;20049;-86
2023/05/27 03:26:11;;;;;;;6.90;2.95;;;;;;;7.03;100.00;99270.09;2614805;28;20049;-86
2023/05/27 03:27:27;;;;;;;14.68;3.42;;;;;;;7.01;100.00;99273.56;2613926;28;20045;-87
2023/05/27 03:28:43;;;;;;;11.82;4.00;;;;;;;6.94;100.00;99277.91;2601423;28;20048;-86
2023/05/27 03:29:58;;;;;;;8.05;2.70;;;;;;;7.19;100.00;99270.06;2607142;28;20055;-85
2023/05/27 03:31:13;;;;;;;11.73;3.22;;;;;;;7.32;100.00;99271.78;2613695;28;20293;-86
2023/05/27 03:32:29;;;;;;;9.00;3.25;;;;;;;7.39;100.00;99264.84;2604210;28;20128;-86
2023/05/27 03:33:45;;;;;;;8.90;2.80;;;;;;;7.67;100.00;99266.53;2607706;28;20451;-88
2023/05/27 03:35:00;;;;;;;10.63;4.45;;;;;;;7.55;100.00;99264.84;2614588;28;20079;-86
2023/05/27 03:36:16;;;;;;;11.07;3.40;;;;;;;7.72;100.00;99262.16;2613243;28;20044;-86
2023/05/27 03:37:32;;;;;;;9.05;2.90;;;;;;;7.80;100.00;99267.34;2612277;28;20052;-86
2023/05/27 03:38:47;;;;;;;10.77;3.38;;;;;;;7.83;100.00;99264.75;2612185;28;20052;-86
2023/05/27 03:40:04;;;;;;;9.90;3.33;;;;;;;7.84;100.00;99266.50;2613728;28;20053;-86
2023/05/27 03:41:19;;;;;;;7.63;3.05;;;;;;;7.84;100.00;99271.69;2613949;28;20095;-86
2023/05/27 03:42:35;;;;;;;7.05;3.10;;;;;;;7.74;100.00;99274.31;2614131;28;20060;-86
2023/05/27 03:43:51;;;;;;;8.32;3.33;;;;;;;7.65;100.00;99276.94;2612188;28;20061;-86
2023/05/27 03:45:07;;;;;;;8.95;3.20;;;;;;;7.44;100.00;99276.13;2602735;28;20507;-85
2023/05/27 03:46:22;;;;;;;10.07;2.80;;;;;;;7.60;100.00;99283.91;2604397;28;20159;-86
2023/05/27 03:47:38;;;;;;;7.85;3.08;;;;;;;7.54;100.00;99289.13;2611564;28;20049;-86
2023/05/27 03:48:53;;;;;;;10.05;3.35;;;;;;;7.60;100.00;99289.13;2611611;28;20048;-86
2023/05/27 03:50:09;;;;;;;10.20;3.72;;;;;;;7.59;100.00;99279.59;2600911;28;20049;-85
2023/05/27 03:51:25;;;;;;;10.00;3.50;;;;;;;7.52;100.00;99281.34;2606095;28;20561;-89
2023/05/27 03:52:41;;;;;;;10.18;3.90;;;;;;;7.52;100.00;99278.72;2614489;28;20457;-86
2023/05/27 03:53:57;;;;;;;8.85;3.13;;;;;;;7.33;100.00;99285.69;2611489;28;20056;-87
2023/05/27 03:55:12;;;;;;;12.13;4.20;;;;;;;7.41;100.00;99283.97;2615322;28;20259;-85
2023/05/27 03:56:28;;;;;;;8.75;2.65;;;;;;;7.38;100.00;99280.50;2614479;28;20044;-86
2023/05/27 03:57:43;;;;;;;9.60;2.90;;;;;;;7.60;100.00;99281.31;2612052;28;20106;-86
2023/05/27 03:58:59;;;;;;;9.68;3.28;;;;;;;7.54;100.00;99276.97;2611047;28;20156;-86
2023/05/27 04:00:17;;;;;;;10.55;3.03;;;;;;;7.39;100.00;99284.84;2611518;28;20741;-86
2023/05/27 04:01:32;;;;;;;8.40;3.00;;;;;;;7.37;100.00;99284.81;2612826;28;20057;-86
2023/05/27 04:02:49;;;;;;;8.25;3.65;;;;;;;7.57;100.00;99281.34;2614888;28;20079;-86
2023/05/27 04:04:04;;;;;;;8.05;3.10;;;;;;;7.54;100.00;99282.19;2613808;28;20076;-86
2023/05/27 04:05:20;;;;;;;9.05;3.33;;;;;;;7.82;100.00;99283.84;2612478;28;20041;-85
2023/05/27 04:06:37;;;;;;;8.40;3.50;;;;;;;7.67;100.00;99283.03;2612047;28;20077;-86
2023/05/27 04:07:52;;;;;;;9.98;3.20;;;;;;;7.65;100.00;99283.91;2612395;28;20053;-88
2023/05/27 04:09:08;;;;;;;11.07;3.72;;;;;;;7.52;100.00;99283.94;2600419;28;20052;-85
2023/05/27 04:10:24;;;;;;;8.38;3.78;;;;;;;7.61;100.00;99285.66;2607135;28;20076;-85
2023/05/27 04:11:39;;;;;;;9.75;3.90;;;;;;;7.59;100.00;99283.03;2613507;28;20048;-84
2023/05/27 04:12:55;;;;;;;12.15;3.35;;;;;;;7.53;100.00;99285.69;2612057;28;20049;-85
2023/05/27 04:14:10;;;;;;;11.25;3.00;;;;;;;7.74;100.00;99295.19;2613844;28;20053;-85
2023/05/27 04:15:26;;;;;;;8.38;3.33;;;;;;;7.65;100.00;99297.78;2604100;28;20049;-85
2023/05/27 04:16:41;;;;;;;7.55;3.30;;;;;;;7.81;100.00;99295.16;2606551;28;20060;-85
2023/05/27 04:17:57;;;;;;;9.73;3.70;;;;;;;7.81;100.00;99301.25;2602120;28;20049;-85
2023/05/27 04:19:13;;;;;;;12.48;3.15;;;;;;;7.95;100.00;99300.34;2608327;28;20131;-85
2023/05/27 04:20:41;;;;;;;8.35;3.35;;;;;;;7.87;100.00;99303.81;2613319;28;20072;-85
2023/05/27 04:21:57;;;;;;;10.65;3.40;;;;;;;7.89;100.00;99309.03;2614166;28;20048;-85
2023/05/27 04:23:13;;;;;;;9.18;3.50;;;;;;;7.80;100.00;99299.50;2612334;28;20126;-85
2023/05/27 04:24:29;;;;;;;7.95;3.33;;;;;;;7.88;100.00;99309.91;2615258;28;20049;-85
2023/05/27 04:25:44;;;;;;;4.78;2.92;;;;;;;8.00;100.00;99307.28;2613836;28;20053;-85
2023/05/27 04:27:02;;;;;;;9.48;3.45;;;;;;;7.96;100.00;99313.38;2613438;28;20057;-85
2023/05/27 04:28:18;;;;;;;10.73;3.33;;;;;;;7.98;100.00;99315.97;2613520;28;20066;-84
2023/05/27 04:29:34;;;;;;;10.95;3.78;;;;;;;8.05;100.00;99318.53;2613242;28;20457;-85
2023/05/27 04:30:50;;;;;;;6.00;3.50;;;;;;;7.93;100.00;99313.38;2612547;28;20041;-85
2023/05/27 04:32:05;;;;;;;8.50;3.42;;;;;;;7.83;100.00;99315.13;2615228;28;20053;-85
2023/05/27 04:33:22;;;;;;;7.50;3.53;;;;;;;7.84;100.00;99318.63;2612207;28;20056;-85
2023/05/27 04:34:41;;;;;;;10.40;3.38;;;;;;;8.01;100.00;99318.56;2613677;28;20099;-85
2023/05/27 04:35:56;;;;;;;8.05;3.28;;;;;;;8.00;100.00;99309.88;2613207;28;20074;-84
2023/05/27 04:37:12;;;;;;;8.13;3.25;;;;;;;8.10;100.00;99312.44;2613613;28;20504;-85
2023/05/27 04:38:31;;;;;;;8.13;3.40;;;;;;;8.22;100.00;99311.53;2611581;28;20347;-85
2023/05/27 04:39:46;;;;;;;10.00;3.40;;;;;;;8.10;100.00;99310.72;2611866;28;20072;-85
2023/05/27 04:41:03;;;;;;;9.23;3.28;;;;;;;8.15;100.00;99319.38;2611261;28;20045;-85
2023/05/27 04:42:19;;;;;;;5.95;3.20;;;;;;;8.47;100.00;99314.88;2613574;28;20965;-85
2023/05/27 04:43:35;;;;;;;7.70;3.28;;;;;;;8.41;100.00;99314.94;2612196;28;20106;-85
2023/05/27 04:44:50;;;;;;;7.55;3.13;;;;;;;8.46;100.00;99316.66;2612996;28;20052;-84
2023/05/27 04:46:06;;;;;;;7.95;3.08;;;;;;;8.42;100.00;99319.28;2612616;28;20049;-85
2023/05/27 04:47:22;;;;;;;9.73;3.28;;;;;;;8.55;100.00;99320.97;2616052;28;20488;-85
2023/05/27 04:48:37;;;;;;;7.63;3.60;;;;;;;8.51;100.00;99314.00;2614963;28;20049;-85
2023/05/27 04:49:53;;;;;;;7.28;3.17;;;;;;;8.55;100.00;99310.53;2614053;28;20257;-85
2023/05/27 04:51:11;;;;;;;10.02;3.45;;;;;;;8.65;100.00;99319.16;2613783;28;20602;-88
2023/05/27 04:52:27;;;;;;;12.07;3.60;;;;;;;8.62;100.00;99309.59;2613981;28;20201;-86
2023/05/27 04:53:43;;;;;;;9.00;3.28;;;;;;;8.74;100.00;99313.03;2613775;28;20051;-86
2023/05/27 04:54:58;;;;;;;10.95;3.15;;;;;;;8.77;100.00;99313.00;2615399;28;20095;-86
2023/05/27 04:56:16;;;;;;;10.20;2.95;;;;;;;8.90;100.00;99314.66;2615096;28;20080;-86
2023/05/27 04:57:33;;;;;;;8.80;3.58;;;;;;;8.79;100.00;99311.25;2611104;28;20484;-87
2023/05/27 04:58:48;;;;;;;8.60;3.35;;;;;;;8.84;100.00;99313.81;2614185;28;20507;-86
2023/05/27 05:01:22;;;;;;;12.68;4.18;;;;;;;9.11;100.00;99320.59;2613223;28;20053;-86
2023/05/27 05:02:39;;;;;;;6.85;3.60;;;;;;;9.27;100.00;99316.09;2614677;28;20459;-86
2023/05/27 05:04:13;;;;;;;9.30;3.78;;;;;;;9.36;100.00;99315.19;2614646;28;20049;-86
2023/05/27 05:05:29;;;;;;;13.00;3.40;;;;;;;9.51;100.00;99308.06;2615076;28;20084;-86
2023/05/27 05:06:44;;;;;;;8.63;3.40;;;;;;;9.61;100.00;99314.94;2616142;28;20040;-86
2023/05/27 05:08:00;;;;;;;11.10;3.50;;;;;;;9.43;100.00;99311.63;2613576;28;20048;-86
2023/05/27 05:09:15;;;;;;;11.80;3.80;;;;;;;9.79;100.00;99313.88;2614987;28;20095;-87
2023/05/27 05:10:31;;;;;;;9.43;3.20;;;;;;;9.68;100.00;99314.00;2615564;28;20053;-87
2023/05/27 05:11:46;;;;;;;5.50;2.55;;;;;;;9.36;100.00;99317.78;2615684;28;20045;-86
2023/05/27 05:13:02;;;;;;;7.78;3.35;;;;;;;9.46;100.00;99305.50;2612693;28;20079;-86
2023/05/27 05:14:18;;;;;;;6.85;3.28;;;;;;;9.41;100.00;99316.00;2614318;28;20049;-86
2023/05/27 05:15:34;;;;;;;9.77;3.53;;;;;;;9.58;100.00;99304.50;2614677;28;20049;-87
2023/05/27 05:16:50;;;;;;;9.38;3.40;;;;;;;9.70;100.00;99308.72;2614404;28;20108;-86
2023/05/27 05:18:05;;;;;;;6.93;3.38;;;;;;;9.75;100.00;99312.19;2615517;28;20578;-88
2023/05/27 05:19:21;;;;;;;13.05;3.95;;;;;;;9.91;100.00;99306.78;2614369;28;20056;-90
2023/05/27 05:20:37;;;;;;;11.07;3.42;;;;;;;9.86;100.00;99302.47;2614753;28;20075;-91
2023/05/27 05:21:52;;;;;;;11.20;3.38;;;;;;;9.81;100.00;99301.66;2615309;28;20045;-92
2023/05/27 05:23:08;;;;;;;11.27;3.45;;;;;;;9.81;100.00;99303.41;2612673;28;20056;-88
2023/05/27 05:24:24;;;;;;;9.93;3.55;;;;;;;9.75;100.00;99304.34;2613558;28;20828;-88
2023/05/27 05:25:39;;;;;;;10.07;3.50;;;;;;;9.81;100.00;99301.66;2615221;28;20048;-88
2023/05/27 05:26:55;;;;;;;10.15;3.30;;;;;;;9.89;100.00;99299.81;2613844;28;20044;-87
2023/05/27 05:28:11;;;;;;;12.35;3.63;;;;;;;10.01;100.00;99301.41;2612646;28;20088;-88
2023/05/27 05:29:26;;;;;;;7.93;3.30;;;;;;;10.03;100.00;99302.25;2615305;28;20928;-88
2023/05/27 05:30:42;;;;;;;8.40;3.97;;;;;;;10.18;100.00;99309.06;2615355;28;20091;-88
2023/05/27 05:31:58;;;;;;;9.23;3.53;;;;;;;10.32;100.00;99302.78;2615437;28;20585;-87
2023/05/27 05:33:13;;;;;;;6.80;3.08;;;;;;;10.29;100.00;99310.69;2613303;28;20519;-85
2023/05/27 05:34:29;;;;;;;8.50;3.40;;;;;;;10.40;100.00;99303.53;2616006;28;20037;-85
2023/05/27 05:35:45;;;;;;;12.45;3.40;;;;;;;10.54;100.00;99303.41;2613903;28;20398;-85
2023/05/27 05:37:00;;;;;;;9.23;3.47;;;;;;;10.60;100.00;99303.31;2613407;28;20060;-87
2023/05/27 05:38:15;;;;;;;7.88;3.35;;;;;;;10.76;100.00;99302.22;2613304;28;20049;-88
2023/05/27 05:39:32;;;;;;;12.82;3.50;;;;;;;10.75;100.00;99301.34;2614359;28;20128;-88
2023/05/27 05:40:49;;;;;;;12.52;3.67;;;;;;;11.00;100.00;99300.97;2614304;28;20055;-88
2023/05/27 05:42:05;;;;;;;7.88;3.50;;;;;;;10.81;100.00;99303.00;2613982;28;20511;-92
2023/05/27 05:43:21;;;;;;;7.22;3.28;;;;;;;11.04;100.00;99304.41;2615049;28;20051;-87
2023/05/27 05:44:37;;;;;;;7.47;3.47;;;;;;;11.09;100.00;99307.81;2612976;28;20060;-87
2023/05/27 05:45:52;;;;;;;8.70;3.65;;;;;;;11.35;100.00;99302.16;2616255;28;20048;-88
2023/05/27 05:47:08;;;;;;;17.02;3.97;;;;;;;11.09;100.00;99305.19;2612986;28;20063;-86
2023/05/27 05:48:23;;;;;;;13.15;3.50;;;;;;;11.23;100.00;99310.22;2615432;28;20045;-85
2023/05/27 05:49:39;;;;;;;11.70;3.88;;;;;;;11.36;100.00;99305.63;2612462;28;20049;-85
2023/05/27 05:50:55;;;;;;;9.45;3.53;;;;;;;11.70;100.00;99305.91;2615069;28;20053;-86
2023/05/27 05:52:10;;;;;;;13.27;3.42;;;;;;;11.75;100.00;99304.97;2612799;28;20847;-86
2023/05/27 05:53:26;;;;;;;9.95;3.17;;;;;;;11.89;98.92;99300.31;2614974;28;20041;-86
2023/05/27 05:54:41;;;;;;;11.50;3.50;;;;;;;11.79;98.80;99304.00;2613782;28;20052;-86
2023/05/27 05:55:57;;;;;;;8.10;2.90;;;;;;;11.79;100.00;99309.25;2612781;28;20045;-86
2023/05/27 05:57:12;;;;;;;12.05;3.53;;;;;;;11.79;100.00;99302.22;2611268;28;20503;-86
2023/05/27 05:58:28;;;;;;;11.60;3.70;;;;;;;11.98;98.85;99310.59;2614852;28;20151;-87
2023/05/27 05:59:44;;;;;;;9.40;2.90;;;;;;;11.77;97.62;99305.78;2612405;28;20056;-87
2023/05/27 06:01:00;;;;;;;8.55;3.25;;;;;;;11.83;98.20;99305.66;2613605;28;20044;-87